Liberty, Mississippi
Current Conditions -  °F | °C
As of 3:53 AM on Thursday 23 Oct 2014 (Local Time) from KMCB Reporting Station
Clear Clear  
Wind Chill: 53°   Ceiling: Unl
Heat Index: 53°   Visibility: 10mi
Dew Point: 45°   Wind: 6mph
Humidity: 74%   Direction: 30°NNE
Pressure: 30.09"   Gusts: NA
Location:  31.16°N, 90.81°W
Report Text: KMCB 230853Z AUTO 03005KT 10SM CLR 12/07 A3009 RMK AO2 SLP184 T01170072 58006
Loading
Personal Weather Stations






























Interactive Weather Map
Tropical Storm Tracking
New forecast layout! Learn more

10-Day Weather Forecast

Advertisements
Track Severe Weather on mobile